sensor_id;sensor_type;location;lat;lon;timestamp;P1;durP1;ratioP1;P2;durP2;ratioP2
19030;SDS011;9648;51.130;13.978;2022-10-03T00:01:04;9.15;;;2.40;;
19030;SDS011;9648;51.130;13.978;2022-10-03T00:03:42;8.85;;;2.25;;
19030;SDS011;9648;51.130;13.978;2022-10-03T00:06:23;11.20;;;2.50;;
19030;SDS011;9648;51.130;13.978;2022-10-03T00:09:03;8.77;;;2.10;;
19030;SDS011;9648;51.130;13.978;2022-10-03T00:11:55;8.90;;;2.33;;
19030;SDS011;9648;51.130;13.978;2022-10-03T00:14:37;12.57;;;2.60;;
19030;SDS011;9648;51.130;13.978;2022-10-03T00:17:11;13.27;;;2.58;;
19030;SDS011;9648;51.130;13.978;2022-10-03T00:19:46;11.15;;;2.55;;
19030;SDS011;9648;51.130;13.978;2022-10-03T00:22:21;12.27;;;2.65;;
19030;SDS011;9648;51.130;13.978;2022-10-03T00:25:00;11.43;;;2.58;;
19030;SDS011;9648;51.130;13.978;2022-10-03T00:27:40;11.45;;;2.60;;
19030;SDS011;9648;51.130;13.978;2022-10-03T00:30:12;15.10;;;3.00;;
19030;SDS011;9648;51.130;13.978;2022-10-03T00:32:45;12.83;;;2.73;;
19030;SDS011;9648;51.130;13.978;2022-10-03T00:35:44;10.25;;;2.40;;
19030;SDS011;9648;51.130;13.978;2022-10-03T00:38:23;12.23;;;3.03;;
19030;SDS011;9648;51.130;13.978;2022-10-03T00:41:05;14.33;;;3.03;;
19030;SDS011;9648;51.130;13.978;2022-10-03T00:49:57;15.13;;;3.13;;
19030;SDS011;9648;51.130;13.978;2022-10-03T00:53:10;14.20;;;2.83;;
19030;SDS011;9648;51.130;13.978;2022-10-03T00:56:05;16.20;;;3.05;;
19030;SDS011;9648;51.130;13.978;2022-10-03T00:58:53;15.43;;;2.90;;
19030;SDS011;9648;51.130;13.978;2022-10-03T01:01:34;15.73;;;3.07;;
19030;SDS011;9648;51.130;13.978;2022-10-03T01:04:12;14.18;;;3.10;;
19030;SDS011;9648;51.130;13.978;2022-10-03T01:06:55;12.57;;;2.77;;
19030;SDS011;9648;51.130;13.978;2022-10-03T01:09:33;14.40;;;2.65;;
19030;SDS011;9648;51.130;13.978;2022-10-03T01:12:12;11.68;;;2.80;;
19030;SDS011;9648;51.130;13.978;2022-10-03T01:14:58;15.43;;;3.10;;
19030;SDS011;9648;51.130;13.978;2022-10-03T01:17:40;16.17;;;3.05;;
19030;SDS011;9648;51.130;13.978;2022-10-03T01:20:17;15.57;;;3.08;;
19030;SDS011;9648;51.130;13.978;2022-10-03T01:23:04;15.73;;;2.97;;
19030;SDS011;9648;51.130;13.978;2022-10-03T01:26:02;16.77;;;3.13;;
19030;SDS011;9648;51.130;13.978;2022-10-03T01:28:47;13.55;;;3.13;;
19030;SDS011;9648;51.130;13.978;2022-10-03T01:31:36;14.07;;;3.03;;
19030;SDS011;9648;51.130;13.978;2022-10-03T01:34:10;14.15;;;2.88;;
19030;SDS011;9648;51.130;13.978;2022-10-03T01:36:46;15.32;;;3.13;;
19030;SDS011;9648;51.130;13.978;2022-10-03T01:39:26;16.70;;;2.83;;
19030;SDS011;9648;51.130;13.978;2022-10-03T01:41:58;21.27;;;3.10;;
19030;SDS011;9648;51.130;13.978;2022-10-03T01:44:31;16.40;;;3.40;;
19030;SDS011;9648;51.130;13.978;2022-10-03T01:47:12;18.25;;;3.25;;
19030;SDS011;9648;51.130;13.978;2022-10-03T01:49:45;17.13;;;3.38;;
19030;SDS011;9648;51.130;13.978;2022-10-03T01:52:19;18.92;;;3.15;;
19030;SDS011;9648;51.130;13.978;2022-10-03T01:54:53;17.55;;;3.15;;
19030;SDS011;9648;51.130;13.978;2022-10-03T01:57:25;14.55;;;2.88;;
19030;SDS011;9648;51.130;13.978;2022-10-03T02:00:04;14.23;;;2.97;;
19030;SDS011;9648;51.130;13.978;2022-10-03T02:02:38;16.60;;;2.95;;
19030;SDS011;9648;51.130;13.978;2022-10-03T02:05:10;15.77;;;3.20;;
19030;SDS011;9648;51.130;13.978;2022-10-03T02:07:44;15.07;;;2.78;;
19030;SDS011;9648;51.130;13.978;2022-10-03T02:10:21;15.02;;;2.83;;
19030;SDS011;9648;51.130;13.978;2022-10-03T02:12:57;16.15;;;3.15;;
19030;SDS011;9648;51.130;13.978;2022-10-03T02:15:33;18.47;;;3.20;;
19030;SDS011;9648;51.130;13.978;2022-10-03T02:18:08;16.35;;;3.08;;
19030;SDS011;9648;51.130;13.978;2022-10-03T02:20:41;15.40;;;3.00;;
19030;SDS011;9648;51.130;13.978;2022-10-03T02:23:22;17.13;;;2.97;;
19030;SDS011;9648;51.130;13.978;2022-10-03T02:25:53;16.75;;;2.80;;
19030;SDS011;9648;51.130;13.978;2022-10-03T02:28:47;15.00;;;2.90;;
19030;SDS011;9648;51.130;13.978;2022-10-03T02:31:43;13.50;;;2.77;;
19030;SDS011;9648;51.130;13.978;2022-10-03T02:40:45;15.63;;;3.10;;
19030;SDS011;9648;51.130;13.978;2022-10-03T02:43:30;16.00;;;3.40;;
19030;SDS011;9648;51.130;13.978;2022-10-03T02:49:33;13.88;;;3.42;;
19030;SDS011;9648;51.130;13.978;2022-10-03T02:52:32;19.33;;;3.75;;
19030;SDS011;9648;51.130;13.978;2022-10-03T02:55:27;17.55;;;3.78;;
19030;SDS011;9648;51.130;13.978;2022-10-03T02:58:14;15.95;;;3.92;;
19030;SDS011;9648;51.130;13.978;2022-10-03T03:01:05;12.82;;;3.67;;
19030;SDS011;9648;51.130;13.978;2022-10-03T03:04:05;15.27;;;3.40;;
19030;SDS011;9648;51.130;13.978;2022-10-03T03:06:54;14.10;;;3.55;;
19030;SDS011;9648;51.130;13.978;2022-10-03T03:09:43;16.10;;;3.47;;
19030;SDS011;9648;51.130;13.978;2022-10-03T03:12:28;15.15;;;3.90;;
19030;SDS011;9648;51.130;13.978;2022-10-03T03:18:21;17.90;;;4.03;;
19030;SDS011;9648;51.130;13.978;2022-10-03T03:21:01;16.63;;;3.53;;
19030;SDS011;9648;51.130;13.978;2022-10-03T03:23:48;17.70;;;4.28;;
19030;SDS011;9648;51.130;13.978;2022-10-03T03:29:17;15.10;;;4.10;;
19030;SDS011;9648;51.130;13.978;2022-10-03T03:31:51;16.73;;;4.63;;
19030;SDS011;9648;51.130;13.978;2022-10-03T03:34:28;14.88;;;4.35;;
19030;SDS011;9648;51.130;13.978;2022-10-03T03:37:03;14.20;;;4.30;;
19030;SDS011;9648;51.130;13.978;2022-10-03T03:39:48;21.05;;;5.00;;
19030;SDS011;9648;51.130;13.978;2022-10-03T03:45:27;10.80;;;4.38;;
19030;SDS011;9648;51.130;13.978;2022-10-03T03:48:13;13.98;;;4.80;;
19030;SDS011;9648;51.130;13.978;2022-10-03T03:50:54;16.27;;;4.63;;
19030;SDS011;9648;51.130;13.978;2022-10-03T03:53:48;17.10;;;4.23;;
19030;SDS011;9648;51.130;13.978;2022-10-03T03:56:54;14.60;;;4.13;;
19030;SDS011;9648;51.130;13.978;2022-10-03T03:59:58;18.00;;;5.10;;
19030;SDS011;9648;51.130;13.978;2022-10-03T04:02:51;17.00;;;4.85;;
19030;SDS011;9648;51.130;13.978;2022-10-03T04:05:32;15.23;;;4.53;;
19030;SDS011;9648;51.130;13.978;2022-10-03T04:08:23;15.02;;;4.57;;
19030;SDS011;9648;51.130;13.978;2022-10-03T04:11:06;17.73;;;4.35;;
19030;SDS011;9648;51.130;13.978;2022-10-03T04:13:55;11.30;;;3.80;;
19030;SDS011;9648;51.130;13.978;2022-10-03T04:16:41;11.27;;;3.90;;
19030;SDS011;9648;51.130;13.978;2022-10-03T04:19:43;14.50;;;4.30;;
19030;SDS011;9648;51.130;13.978;2022-10-03T04:22:27;16.50;;;4.30;;
19030;SDS011;9648;51.130;13.978;2022-10-03T04:25:15;15.33;;;3.93;;
19030;SDS011;9648;51.130;13.978;2022-10-03T04:27:58;14.65;;;3.95;;
19030;SDS011;9648;51.130;13.978;2022-10-03T04:30:46;16.85;;;3.88;;
19030;SDS011;9648;51.130;13.978;2022-10-03T04:33:24;12.07;;;3.95;;
19030;SDS011;9648;51.130;13.978;2022-10-03T04:36:12;11.25;;;3.55;;
19030;SDS011;9648;51.130;13.978;2022-10-03T04:38:54;12.30;;;3.80;;
19030;SDS011;9648;51.130;13.978;2022-10-03T04:41:34;12.93;;;3.80;;
19030;SDS011;9648;51.130;13.978;2022-10-03T04:44:08;10.98;;;3.63;;
19030;SDS011;9648;51.130;13.978;2022-10-03T04:46:46;14.10;;;4.28;;
19030;SDS011;9648;51.130;13.978;2022-10-03T04:49:22;13.65;;;3.83;;
19030;SDS011;9648;51.130;13.978;2022-10-03T04:51:56;17.67;;;4.15;;
19030;SDS011;9648;51.130;13.978;2022-10-03T04:54:29;14.30;;;4.13;;
19030;SDS011;9648;51.130;13.978;2022-10-03T04:57:09;15.38;;;4.10;;
19030;SDS011;9648;51.130;13.978;2022-10-03T04:59:47;11.85;;;3.70;;
19030;SDS011;9648;51.130;13.978;2022-10-03T05:02:27;15.40;;;3.90;;
19030;SDS011;9648;51.130;13.978;2022-10-03T05:05:14;13.83;;;3.73;;
19030;SDS011;9648;51.130;13.978;2022-10-03T05:07:49;13.02;;;3.65;;
19030;SDS011;9648;51.130;13.978;2022-10-03T05:10:33;13.88;;;4.10;;
19030;SDS011;9648;51.130;13.978;2022-10-03T05:13:11;11.70;;;3.45;;
19030;SDS011;9648;51.130;13.978;2022-10-03T05:15:45;13.48;;;3.53;;
19030;SDS011;9648;51.130;13.978;2022-10-03T05:18:21;16.77;;;3.47;;
19030;SDS011;9648;51.130;13.978;2022-10-03T05:21:01;11.63;;;3.28;;
19030;SDS011;9648;51.130;13.978;2022-10-03T05:23:38;13.30;;;3.00;;
19030;SDS011;9648;51.130;13.978;2022-10-03T05:26:14;9.18;;;2.72;;
19030;SDS011;9648;51.130;13.978;2022-10-03T05:28:50;15.27;;;3.55;;
19030;SDS011;9648;51.130;13.978;2022-10-03T05:31:29;12.70;;;3.35;;
19030;SDS011;9648;51.130;13.978;2022-10-03T05:34:11;17.38;;;3.70;;
19030;SDS011;9648;51.130;13.978;2022-10-03T05:36:53;13.75;;;3.83;;
19030;SDS011;9648;51.130;13.978;2022-10-03T05:39:27;12.05;;;3.65;;
19030;SDS011;9648;51.130;13.978;2022-10-03T05:42:10;13.05;;;3.90;;
19030;SDS011;9648;51.130;13.978;2022-10-03T05:44:50;16.48;;;4.00;;
19030;SDS011;9648;51.130;13.978;2022-10-03T05:47:27;15.52;;;4.18;;
19030;SDS011;9648;51.130;13.978;2022-10-03T05:53:36;15.05;;;4.60;;
19030;SDS011;9648;51.130;13.978;2022-10-03T05:56:30;14.67;;;4.20;;
19030;SDS011;9648;51.130;13.978;2022-10-03T05:59:18;15.05;;;4.10;;
19030;SDS011;9648;51.130;13.978;2022-10-03T06:02:11;10.93;;;3.60;;
19030;SDS011;9648;51.130;13.978;2022-10-03T06:05:05;15.30;;;4.10;;
19030;SDS011;9648;51.130;13.978;2022-10-03T06:07:51;13.07;;;4.18;;
19030;SDS011;9648;51.130;13.978;2022-10-03T06:10:46;12.13;;;4.00;;
19030;SDS011;9648;51.130;13.978;2022-10-03T06:13:23;15.55;;;4.00;;
19030;SDS011;9648;51.130;13.978;2022-10-03T06:16:08;13.68;;;3.90;;
19030;SDS011;9648;51.130;13.978;2022-10-03T06:18:57;17.13;;;4.00;;
19030;SDS011;9648;51.130;13.978;2022-10-03T06:21:48;14.85;;;3.70;;
19030;SDS011;9648;51.130;13.978;2022-10-03T06:30:56;12.35;;;3.47;;
19030;SDS011;9648;51.130;13.978;2022-10-03T06:33:52;15.60;;;3.65;;
19030;SDS011;9648;51.130;13.978;2022-10-03T06:36:45;15.33;;;3.00;;
19030;SDS011;9648;51.130;13.978;2022-10-03T06:54:49;10.93;;;2.90;;
19030;SDS011;9648;51.130;13.978;2022-10-03T07:00:41;14.38;;;2.83;;
19030;SDS011;9648;51.130;13.978;2022-10-03T07:06:14;10.10;;;2.78;;
19030;SDS011;9648;51.130;13.978;2022-10-03T07:15:42;10.38;;;2.85;;
19030;SDS011;9648;51.130;13.978;2022-10-03T07:18:44;12.50;;;3.05;;
19030;SDS011;9648;51.130;13.978;2022-10-03T07:22:02;13.52;;;3.63;;
19030;SDS011;9648;51.130;13.978;2022-10-03T07:28:00;13.60;;;3.42;;
19030;SDS011;9648;51.130;13.978;2022-10-03T07:30:47;18.02;;;3.83;;
19030;SDS011;9648;51.130;13.978;2022-10-03T07:33:34;14.30;;;3.47;;
19030;SDS011;9648;51.130;13.978;2022-10-03T07:36:26;8.37;;;2.87;;
19030;SDS011;9648;51.130;13.978;2022-10-03T07:39:25;12.53;;;3.10;;
19030;SDS011;9648;51.130;13.978;2022-10-03T07:42:28;12.82;;;3.40;;
19030;SDS011;9648;51.130;13.978;2022-10-03T07:45:12;14.73;;;3.28;;
19030;SDS011;9648;51.130;13.978;2022-10-03T07:51:13;15.00;;;3.55;;
19030;SDS011;9648;51.130;13.978;2022-10-03T07:54:03;14.32;;;3.40;;
19030;SDS011;9648;51.130;13.978;2022-10-03T07:56:57;13.30;;;3.40;;
19030;SDS011;9648;51.130;13.978;2022-10-03T08:02:56;16.30;;;4.32;;
19030;SDS011;9648;51.130;13.978;2022-10-03T08:05:52;9.60;;;3.22;;
19030;SDS011;9648;51.130;13.978;2022-10-03T08:08:52;13.65;;;3.35;;
19030;SDS011;9648;51.130;13.978;2022-10-03T08:11:31;15.47;;;3.40;;
19030;SDS011;9648;51.130;13.978;2022-10-03T08:14:22;10.68;;;3.20;;
19030;SDS011;9648;51.130;13.978;2022-10-03T08:22:51;12.88;;;3.05;;
19030;SDS011;9648;51.130;13.978;2022-10-03T08:25:34;9.93;;;3.03;;
19030;SDS011;9648;51.130;13.978;2022-10-03T08:28:21;13.40;;;3.30;;
19030;SDS011;9648;51.130;13.978;2022-10-03T08:31:10;11.18;;;2.90;;
19030;SDS011;9648;51.130;13.978;2022-10-03T08:33:56;15.90;;;3.55;;
19030;SDS011;9648;51.130;13.978;2022-10-03T08:36:48;14.07;;;3.38;;
19030;SDS011;9648;51.130;13.978;2022-10-03T08:39:52;11.13;;;3.22;;
19030;SDS011;9648;51.130;13.978;2022-10-03T08:42:55;14.02;;;3.08;;
19030;SDS011;9648;51.130;13.978;2022-10-03T08:45:56;9.45;;;2.90;;
19030;SDS011;9648;51.130;13.978;2022-10-03T08:48:48;13.20;;;3.13;;
19030;SDS011;9648;51.130;13.978;2022-10-03T08:51:44;14.10;;;3.97;;
19030;SDS011;9648;51.130;13.978;2022-10-03T08:54:33;16.38;;;3.60;;
19030;SDS011;9648;51.130;13.978;2022-10-03T08:57:37;13.23;;;3.58;;
19030;SDS011;9648;51.130;13.978;2022-10-03T09:00:28;13.57;;;3.45;;
19030;SDS011;9648;51.130;13.978;2022-10-03T09:09:18;10.43;;;2.97;;
19030;SDS011;9648;51.130;13.978;2022-10-03T09:12:05;12.33;;;3.13;;
19030;SDS011;9648;51.130;13.978;2022-10-03T09:14:55;11.27;;;3.00;;
19030;SDS011;9648;51.130;13.978;2022-10-03T09:24:22;15.35;;;3.28;;
19030;SDS011;9648;51.130;13.978;2022-10-03T09:27:14;12.73;;;3.15;;
19030;SDS011;9648;51.130;13.978;2022-10-03T09:30:09;12.85;;;3.10;;
19030;SDS011;9648;51.130;13.978;2022-10-03T09:32:53;11.37;;;3.30;;
19030;SDS011;9648;51.130;13.978;2022-10-03T09:35:49;14.20;;;3.47;;
19030;SDS011;9648;51.130;13.978;2022-10-03T09:38:36;10.73;;;3.17;;
19030;SDS011;9648;51.130;13.978;2022-10-03T09:41:33;14.73;;;3.90;;
19030;SDS011;9648;51.130;13.978;2022-10-03T09:47:39;11.05;;;2.90;;
19030;SDS011;9648;51.130;13.978;2022-10-03T09:50:36;13.45;;;3.22;;
19030;SDS011;9648;51.130;13.978;2022-10-03T10:06:21;10.32;;;2.65;;
19030;SDS011;9648;51.130;13.978;2022-10-03T10:09:13;10.13;;;2.45;;
19030;SDS011;9648;51.130;13.978;2022-10-03T10:12:10;12.52;;;2.83;;
19030;SDS011;9648;51.130;13.978;2022-10-03T10:15:12;12.02;;;2.58;;
19030;SDS011;9648;51.130;13.978;2022-10-03T10:21:20;8.70;;;2.45;;
19030;SDS011;9648;51.130;13.978;2022-10-03T10:24:06;10.07;;;2.70;;
19030;SDS011;9648;51.130;13.978;2022-10-03T10:27:01;12.45;;;2.70;;
19030;SDS011;9648;51.130;13.978;2022-10-03T10:30:02;11.90;;;2.60;;
19030;SDS011;9648;51.130;13.978;2022-10-03T10:32:53;12.05;;;2.67;;
19030;SDS011;9648;51.130;13.978;2022-10-03T10:36:00;11.15;;;2.47;;
19030;SDS011;9648;51.130;13.978;2022-10-03T10:42:04;11.40;;;2.20;;
19030;SDS011;9648;51.130;13.978;2022-10-03T10:45:14;10.27;;;2.60;;
19030;SDS011;9648;51.130;13.978;2022-10-03T10:48:09;10.63;;;2.25;;
19030;SDS011;9648;51.130;13.978;2022-10-03T10:51:25;11.90;;;2.55;;
19030;SDS011;9648;51.130;13.978;2022-10-03T10:54:34;10.48;;;2.60;;
19030;SDS011;9648;51.130;13.978;2022-10-03T10:57:20;10.95;;;2.33;;
19030;SDS011;9648;51.130;13.978;2022-10-03T11:00:10;8.23;;;1.90;;
19030;SDS011;9648;51.130;13.978;2022-10-03T11:09:10;7.57;;;1.92;;
19030;SDS011;9648;51.130;13.978;2022-10-03T11:15:23;11.93;;;2.17;;
19030;SDS011;9648;51.130;13.978;2022-10-03T11:18:24;11.15;;;2.70;;
19030;SDS011;9648;51.130;13.978;2022-10-03T11:27:50;9.07;;;2.03;;
19030;SDS011;9648;51.130;13.978;2022-10-03T11:30:55;7.80;;;1.90;;
19030;SDS011;9648;51.130;13.978;2022-10-03T11:33:55;7.05;;;1.80;;
19030;SDS011;9648;51.130;13.978;2022-10-03T11:36:53;8.45;;;1.88;;
19030;SDS011;9648;51.130;13.978;2022-10-03T11:39:34;7.97;;;1.85;;
19030;SDS011;9648;51.130;13.978;2022-10-03T11:42:10;12.45;;;2.15;;
19030;SDS011;9648;51.130;13.978;2022-10-03T11:44:56;13.60;;;2.28;;
19030;SDS011;9648;51.130;13.978;2022-10-03T11:47:38;10.27;;;1.98;;
19030;SDS011;9648;51.130;13.978;2022-10-03T11:50:32;10.45;;;2.25;;
19030;SDS011;9648;51.130;13.978;2022-10-03T11:53:15;9.80;;;1.98;;
19030;SDS011;9648;51.130;13.978;2022-10-03T11:55:49;10.13;;;2.05;;
19030;SDS011;9648;51.130;13.978;2022-10-03T11:58:26;6.60;;;2.03;;
19030;SDS011;9648;51.130;13.978;2022-10-03T12:01:08;7.97;;;1.95;;
19030;SDS011;9648;51.130;13.978;2022-10-03T12:03:54;8.37;;;1.90;;
19030;SDS011;9648;51.130;13.978;2022-10-03T12:06:33;7.95;;;1.80;;
19030;SDS011;9648;51.130;13.978;2022-10-03T12:09:34;7.47;;;1.70;;
19030;SDS011;9648;51.130;13.978;2022-10-03T12:12:11;8.43;;;2.03;;
19030;SDS011;9648;51.130;13.978;2022-10-03T12:14:46;11.63;;;2.33;;
19030;SDS011;9648;51.130;13.978;2022-10-03T12:17:19;9.38;;;2.22;;
19030;SDS011;9648;51.130;13.978;2022-10-03T12:19:59;9.60;;;2.05;;
19030;SDS011;9648;51.130;13.978;2022-10-03T12:22:39;9.32;;;2.35;;
19030;SDS011;9648;51.130;13.978;2022-10-03T12:25:16;10.00;;;1.83;;
19030;SDS011;9648;51.130;13.978;2022-10-03T12:27:49;12.02;;;2.15;;
19030;SDS011;9648;51.130;13.978;2022-10-03T12:30:27;8.70;;;1.85;;
19030;SDS011;9648;51.130;13.978;2022-10-03T12:33:09;9.65;;;2.00;;
19030;SDS011;9648;51.130;13.978;2022-10-03T12:35:48;10.13;;;2.20;;
19030;SDS011;9648;51.130;13.978;2022-10-03T12:38:22;7.90;;;2.00;;
19030;SDS011;9648;51.130;13.978;2022-10-03T12:41:01;9.68;;;2.05;;
19030;SDS011;9648;51.130;13.978;2022-10-03T12:43:40;9.65;;;2.20;;
19030;SDS011;9648;51.130;13.978;2022-10-03T12:46:17;9.45;;;2.20;;
19030;SDS011;9648;51.130;13.978;2022-10-03T12:48:55;7.03;;;2.00;;
19030;SDS011;9648;51.130;13.978;2022-10-03T12:51:33;8.57;;;1.80;;
19030;SDS011;9648;51.130;13.978;2022-10-03T12:54:15;12.23;;;2.17;;
19030;SDS011;9648;51.130;13.978;2022-10-03T12:56:56;10.98;;;1.73;;
19030;SDS011;9648;51.130;13.978;2022-10-03T12:59:40;6.00;;;1.80;;
19030;SDS011;9648;51.130;13.978;2022-10-03T13:02:19;5.88;;;1.58;;
19030;SDS011;9648;51.130;13.978;2022-10-03T13:04:57;6.50;;;1.60;;
19030;SDS011;9648;51.130;13.978;2022-10-03T13:07:50;10.80;;;2.00;;
19030;SDS011;9648;51.130;13.978;2022-10-03T13:10:22;11.98;;;2.00;;
19030;SDS011;9648;51.130;13.978;2022-10-03T13:12:59;4.95;;;1.35;;
19030;SDS011;9648;51.130;13.978;2022-10-03T13:15:46;9.30;;;1.90;;
19030;SDS011;9648;51.130;13.978;2022-10-03T13:18:44;10.23;;;2.30;;
19030;SDS011;9648;51.130;13.978;2022-10-03T13:21:21;7.65;;;1.70;;
19030;SDS011;9648;51.130;13.978;2022-10-03T13:23:56;7.65;;;1.77;;
19030;SDS011;9648;51.130;13.978;2022-10-03T13:26:34;9.10;;;1.95;;
19030;SDS011;9648;51.130;13.978;2022-10-03T13:29:14;6.28;;;1.55;;
19030;SDS011;9648;51.130;13.978;2022-10-03T13:32:07;8.40;;;1.67;;
19030;SDS011;9648;51.130;13.978;2022-10-03T13:34:46;8.57;;;1.80;;
19030;SDS011;9648;51.130;13.978;2022-10-03T13:38:04;9.25;;;1.88;;
19030;SDS011;9648;51.130;13.978;2022-10-03T13:40:42;5.93;;;1.70;;
19030;SDS011;9648;51.130;13.978;2022-10-03T13:43:12;7.30;;;1.47;;
19030;SDS011;9648;51.130;13.978;2022-10-03T13:45:43;6.05;;;1.60;;
19030;SDS011;9648;51.130;13.978;2022-10-03T13:48:16;7.18;;;1.60;;
19030;SDS011;9648;51.130;13.978;2022-10-03T13:50:47;7.93;;;2.03;;
19030;SDS011;9648;51.130;13.978;2022-10-03T13:53:33;7.13;;;1.80;;
19030;SDS011;9648;51.130;13.978;2022-10-03T13:56:10;7.10;;;1.52;;
19030;SDS011;9648;51.130;13.978;2022-10-03T13:58:42;6.78;;;1.55;;
19030;SDS011;9648;51.130;13.978;2022-10-03T14:01:27;6.50;;;1.60;;
19030;SDS011;9648;51.130;13.978;2022-10-03T14:07:01;7.07;;;2.03;;
19030;SDS011;9648;51.130;13.978;2022-10-03T14:09:59;8.93;;;2.00;;
19030;SDS011;9648;51.130;13.978;2022-10-03T14:12:40;8.63;;;2.00;;
19030;SDS011;9648;51.130;13.978;2022-10-03T14:18:12;9.02;;;1.60;;
19030;SDS011;9648;51.130;13.978;2022-10-03T14:23:59;9.65;;;2.15;;
19030;SDS011;9648;51.130;13.978;2022-10-03T14:26:40;6.57;;;1.75;;
19030;SDS011;9648;51.130;13.978;2022-10-03T14:29:16;7.18;;;1.92;;
19030;SDS011;9648;51.130;13.978;2022-10-03T14:31:50;8.77;;;2.00;;
19030;SDS011;9648;51.130;13.978;2022-10-03T14:34:24;10.30;;;2.20;;
19030;SDS011;9648;51.130;13.978;2022-10-03T14:37:03;5.72;;;1.85;;
19030;SDS011;9648;51.130;13.978;2022-10-03T14:39:42;4.63;;;1.52;;
19030;SDS011;9648;51.130;13.978;2022-10-03T14:42:41;9.98;;;2.00;;
19030;SDS011;9648;51.130;13.978;2022-10-03T14:45:22;7.28;;;1.90;;
19030;SDS011;9648;51.130;13.978;2022-10-03T14:47:53;7.00;;;1.70;;
19030;SDS011;9648;51.130;13.978;2022-10-03T14:50:24;7.53;;;1.75;;
19030;SDS011;9648;51.130;13.978;2022-10-03T14:52:56;8.27;;;2.10;;
19030;SDS011;9648;51.130;13.978;2022-10-03T14:55:27;8.05;;;1.88;;
19030;SDS011;9648;51.130;13.978;2022-10-03T14:57:59;9.77;;;2.08;;
19030;SDS011;9648;51.130;13.978;2022-10-03T15:00:35;10.40;;;1.98;;
19030;SDS011;9648;51.130;13.978;2022-10-03T15:06:17;7.70;;;1.88;;
19030;SDS011;9648;51.130;13.978;2022-10-03T15:09:03;9.03;;;1.80;;
19030;SDS011;9648;51.130;13.978;2022-10-03T15:11:35;9.50;;;1.90;;
19030;SDS011;9648;51.130;13.978;2022-10-03T15:14:11;8.02;;;1.83;;
19030;SDS011;9648;51.130;13.978;2022-10-03T15:16:42;9.25;;;2.13;;
19030;SDS011;9648;51.130;13.978;2022-10-03T15:19:13;10.35;;;1.90;;
19030;SDS011;9648;51.130;13.978;2022-10-03T15:21:43;9.60;;;1.88;;
19030;SDS011;9648;51.130;13.978;2022-10-03T15:24:17;9.73;;;1.63;;
19030;SDS011;9648;51.130;13.978;2022-10-03T15:26:47;9.07;;;2.00;;
19030;SDS011;9648;51.130;13.978;2022-10-03T15:29:18;5.78;;;1.63;;
19030;SDS011;9648;51.130;13.978;2022-10-03T15:31:48;7.87;;;1.70;;
19030;SDS011;9648;51.130;13.978;2022-10-03T15:34:16;8.27;;;1.90;;
19030;SDS011;9648;51.130;13.978;2022-10-03T15:36:46;6.70;;;1.73;;
19030;SDS011;9648;51.130;13.978;2022-10-03T15:39:19;7.13;;;2.05;;
19030;SDS011;9648;51.130;13.978;2022-10-03T15:41:52;5.27;;;1.60;;
19030;SDS011;9648;51.130;13.978;2022-10-03T15:44:24;7.65;;;1.80;;
19030;SDS011;9648;51.130;13.978;2022-10-03T15:46:57;5.90;;;1.73;;
19030;SDS011;9648;51.130;13.978;2022-10-03T15:49:30;5.97;;;1.73;;
19030;SDS011;9648;51.130;13.978;2022-10-03T15:52:05;7.23;;;1.57;;
19030;SDS011;9648;51.130;13.978;2022-10-03T15:54:39;9.60;;;1.90;;
19030;SDS011;9648;51.130;13.978;2022-10-03T15:57:14;7.22;;;1.67;;
19030;SDS011;9648;51.130;13.978;2022-10-03T15:59:45;7.07;;;1.35;;
19030;SDS011;9648;51.130;13.978;2022-10-03T16:02:18;6.85;;;1.40;;
19030;SDS011;9648;51.130;13.978;2022-10-03T16:04:48;6.60;;;1.58;;
19030;SDS011;9648;51.130;13.978;2022-10-03T16:07:22;5.68;;;1.40;;
19030;SDS011;9648;51.130;13.978;2022-10-03T16:09:57;7.72;;;1.42;;
19030;SDS011;9648;51.130;13.978;2022-10-03T16:12:46;5.05;;;1.40;;
19030;SDS011;9648;51.130;13.978;2022-10-03T16:15:24;7.00;;;1.40;;
19030;SDS011;9648;51.130;13.978;2022-10-03T16:18:02;8.23;;;1.80;;
19030;SDS011;9648;51.130;13.978;2022-10-03T16:20:33;7.45;;;1.60;;
19030;SDS011;9648;51.130;13.978;2022-10-03T16:23:08;8.77;;;1.70;;
19030;SDS011;9648;51.130;13.978;2022-10-03T16:25:41;11.53;;;1.70;;
19030;SDS011;9648;51.130;13.978;2022-10-03T16:28:12;7.73;;;1.80;;
19030;SDS011;9648;51.130;13.978;2022-10-03T16:30:44;7.20;;;1.60;;
19030;SDS011;9648;51.130;13.978;2022-10-03T16:33:18;6.35;;;1.40;;
19030;SDS011;9648;51.130;13.978;2022-10-03T16:35:49;6.18;;;1.85;;
19030;SDS011;9648;51.130;13.978;2022-10-03T16:38:20;9.27;;;2.10;;
19030;SDS011;9648;51.130;13.978;2022-10-03T16:40:51;8.32;;;1.85;;
19030;SDS011;9648;51.130;13.978;2022-10-03T16:43:20;5.65;;;1.60;;
19030;SDS011;9648;51.130;13.978;2022-10-03T16:45:50;7.05;;;1.70;;
19030;SDS011;9648;51.130;13.978;2022-10-03T16:48:19;6.15;;;1.40;;
19030;SDS011;9648;51.130;13.978;2022-10-03T16:51:06;6.15;;;1.80;;
19030;SDS011;9648;51.130;13.978;2022-10-03T16:53:42;10.67;;;1.60;;
19030;SDS011;9648;51.130;13.978;2022-10-03T16:56:11;6.97;;;1.55;;
19030;SDS011;9648;51.130;13.978;2022-10-03T16:58:42;8.70;;;1.90;;
19030;SDS011;9648;51.130;13.978;2022-10-03T17:01:15;5.95;;;2.03;;
19030;SDS011;9648;51.130;13.978;2022-10-03T17:03:53;9.23;;;1.90;;
19030;SDS011;9648;51.130;13.978;2022-10-03T17:06:26;8.15;;;2.05;;
19030;SDS011;9648;51.130;13.978;2022-10-03T17:08:57;6.25;;;1.70;;
19030;SDS011;9648;51.130;13.978;2022-10-03T17:11:27;10.88;;;1.95;;
19030;SDS011;9648;51.130;13.978;2022-10-03T17:13:58;7.63;;;1.73;;
19030;SDS011;9648;51.130;13.978;2022-10-03T17:16:33;6.22;;;1.60;;
19030;SDS011;9648;51.130;13.978;2022-10-03T17:19:12;6.00;;;1.50;;
19030;SDS011;9648;51.130;13.978;2022-10-03T17:21:45;7.88;;;1.75;;
19030;SDS011;9648;51.130;13.978;2022-10-03T17:24:20;8.13;;;2.05;;
19030;SDS011;9648;51.130;13.978;2022-10-03T17:27:01;7.60;;;2.15;;
19030;SDS011;9648;51.130;13.978;2022-10-03T17:29:35;9.00;;;2.25;;
19030;SDS011;9648;51.130;13.978;2022-10-03T17:32:13;8.18;;;2.08;;
19030;SDS011;9648;51.130;13.978;2022-10-03T17:34:46;9.00;;;2.42;;
19030;SDS011;9648;51.130;13.978;2022-10-03T17:37:25;8.15;;;2.10;;
19030;SDS011;9648;51.130;13.978;2022-10-03T17:40:13;7.57;;;1.73;;
19030;SDS011;9648;51.130;13.978;2022-10-03T17:42:46;7.05;;;1.95;;
19030;SDS011;9648;51.130;13.978;2022-10-03T17:45:23;4.97;;;1.60;;
19030;SDS011;9648;51.130;13.978;2022-10-03T17:47:59;6.18;;;1.70;;
19030;SDS011;9648;51.130;13.978;2022-10-03T17:50:34;6.57;;;1.77;;
19030;SDS011;9648;51.130;13.978;2022-10-03T17:53:04;6.88;;;1.60;;
19030;SDS011;9648;51.130;13.978;2022-10-03T17:55:36;10.52;;;2.10;;
19030;SDS011;9648;51.130;13.978;2022-10-03T17:58:06;9.52;;;1.80;;
19030;SDS011;9648;51.130;13.978;2022-10-03T18:00:54;8.48;;;1.90;;
19030;SDS011;9648;51.130;13.978;2022-10-03T18:03:33;11.40;;;2.05;;
19030;SDS011;9648;51.130;13.978;2022-10-03T18:09:05;10.20;;;2.25;;
19030;SDS011;9648;51.130;13.978;2022-10-03T18:11:36;8.45;;;2.10;;
19030;SDS011;9648;51.130;13.978;2022-10-03T18:14:08;8.35;;;2.00;;
19030;SDS011;9648;51.130;13.978;2022-10-03T18:16:41;7.63;;;2.10;;
19030;SDS011;9648;51.130;13.978;2022-10-03T18:19:19;6.13;;;1.60;;
19030;SDS011;9648;51.130;13.978;2022-10-03T18:21:56;6.83;;;1.60;;
19030;SDS011;9648;51.130;13.978;2022-10-03T18:24:36;5.95;;;1.70;;
19030;SDS011;9648;51.130;13.978;2022-10-03T18:27:19;8.55;;;1.98;;
19030;SDS011;9648;51.130;13.978;2022-10-03T18:30:03;8.43;;;1.77;;
19030;SDS011;9648;51.130;13.978;2022-10-03T18:32:38;8.52;;;2.30;;
19030;SDS011;9648;51.130;13.978;2022-10-03T18:35:08;6.30;;;2.10;;